Time;durP1;ratioP1;P1;durP2;ratioP2;P2;SDS_P1;SDS_P2;PMS_P1;PMS_P2;Temp;Humidity;BMP_temperature;BMP_pressure;BME280_temperature;BME280_humidity;BME280_pressure;Samples;Min_cycle;Max_cycle;Signal;HPM_P1;HPM_P2
2020/12/23 00:01:24;;;;;;;6.82;4.85;;;;;;;;;;5092652;28;20028;-56
2020/12/23 00:03:50;;;;;;;7.45;4.70;;;;;;;;;;5094418;28;20024;-57
2020/12/23 00:06:15;;;;;;;5.35;3.92;;;;;;;;;;5094676;28;20466;-56
2020/12/23 00:08:40;;;;;;;5.30;3.78;;;;;;;;;;5092431;28;20324;-57
2020/12/23 00:11:05;;;;;;;4.53;3.80;;;;;;;;;;5093019;28;20018;-55
2020/12/23 00:13:31;;;;;;;4.55;3.80;;;;;;;;;;5090870;28;20047;-57
2020/12/23 00:15:56;;;;;;;6.47;4.60;;;;;;;;;;5091612;28;20025;-56
2020/12/23 00:18:21;;;;;;;6.05;4.53;;;;;;;;;;5089355;28;20035;-56
2020/12/23 00:20:47;;;;;;;5.22;4.25;;;;;;;;;;5094325;28;20449;-55
2020/12/23 00:23:12;;;;;;;5.55;3.92;;;;;;;;;;5095203;28;20403;-57
2020/12/23 00:25:37;;;;;;;4.18;3.63;;;;;;;;;;5094822;28;20554;-57
2020/12/23 00:28:02;;;;;;;5.18;4.35;;;;;;;;;;5093202;28;20494;-57
2020/12/23 00:30:27;;;;;;;5.00;3.80;;;;;;;;;;5087007;28;20103;-56
2020/12/23 00:32:53;;;;;;;5.90;4.55;;;;;;;;;;5090294;28;20024;-56
2020/12/23 00:35:18;;;;;;;6.40;4.57;;;;;;;;;;5088964;28;20020;-56
2020/12/23 00:37:43;;;;;;;7.85;5.85;;;;;;;;;;5083451;28;20095;-57
2020/12/23 00:40:08;;;;;;;7.78;5.45;;;;;;;;;;5076467;28;20111;-57
2020/12/23 00:42:34;;;;;;;5.63;4.82;;;;;;;;;;5088795;28;20024;-56
2020/12/23 00:44:59;;;;;;;5.60;4.82;;;;;;;;;;5091331;28;20016;-54
2020/12/23 00:47:24;;;;;;;4.47;4.07;;;;;;;;;;5089903;28;20016;-55
2020/12/23 00:49:50;;;;;;;5.70;4.13;;;;;;;;;;5091984;28;20107;-56
2020/12/23 00:52:15;;;;;;;5.93;3.80;;;;;;;;;;5093172;28;20095;-55
2020/12/23 00:54:40;;;;;;;4.85;4.03;;;;;;;;;;5094069;28;20028;-54
2020/12/23 00:57:05;;;;;;;5.72;4.40;;;;;;;;;;5094609;28;20020;-55
2020/12/23 00:59:31;;;;;;;4.93;4.30;;;;;;;;;;5091296;28;20027;-58
2020/12/23 01:02:00;;;;;;;4.60;4.18;;;;;;;;;;5088620;28;20520;-58
2020/12/23 01:04:26;;;;;;;4.72;4.00;;;;;;;;;;5090022;28;20016;-57
2020/12/23 01:06:51;;;;;;;4.93;4.43;;;;;;;;;;5088317;28;20023;-55
2020/12/23 01:09:16;;;;;;;5.80;4.97;;;;;;;;;;5080370;28;20012;-57
2020/12/23 01:11:41;;;;;;;7.03;5.05;;;;;;;;;;5086076;28;20382;-57
2020/12/23 01:14:07;;;;;;;7.18;4.28;;;;;;;;;;5093432;28;20051;-57
2020/12/23 01:16:32;;;;;;;5.20;4.70;;;;;;;;;;5092749;28;20101;-57
2020/12/23 01:18:57;;;;;;;6.25;3.85;;;;;;;;;;5086249;28;20028;-56
2020/12/23 01:21:22;;;;;;;4.80;4.30;;;;;;;;;;5090295;28;20044;-56
2020/12/23 01:23:47;;;;;;;4.22;3.55;;;;;;;;;;5093272;28;20138;-56
2020/12/23 01:26:13;;;;;;;3.53;3.20;;;;;;;;;;5092999;28;20051;-55
2020/12/23 01:28:38;;;;;;;4.13;3.28;;;;;;;;;;5091279;28;20016;-55
2020/12/23 01:31:04;;;;;;;4.55;2.80;;;;;;;;;;5092319;28;20081;-57
2020/12/23 01:33:29;;;;;;;3.67;2.63;;;;;;;;;;5087802;28;20016;-56
2020/12/23 01:35:54;;;;;;;4.45;2.75;;;;;;;;;;5094326;28;20093;-55
2020/12/23 01:38:20;;;;;;;3.25;2.92;;;;;;;;;;5090890;28;20425;-50
2020/12/23 01:40:45;;;;;;;4.10;2.38;;;;;;;;;;5092320;28;20019;-55
2020/12/23 01:43:10;;;;;;;2.78;2.22;;;;;;;;;;5088170;28;20458;-56
2020/12/23 01:45:36;;;;;;;3.42;2.20;;;;;;;;;;5092032;28;20512;-54
2020/12/23 01:48:08;;;;;;;3.78;2.30;;;;;;;;;;5094036;28;20486;-56
2020/12/23 01:50:34;;;;;;;3.83;2.10;;;;;;;;;;5083268;28;20024;-56
2020/12/23 01:52:59;;;;;;;6.32;2.30;;;;;;;;;;5093786;28;20012;-56
2020/12/23 01:55:24;;;;;;;3.90;2.15;;;;;;;;;;5093410;28;20020;-55
2020/12/23 01:57:50;;;;;;;7.75;2.33;;;;;;;;;;5092843;28;20098;-56
2020/12/23 02:00:16;;;;;;;3.50;2.22;;;;;;;;;;5088119;28;20108;-55
2020/12/23 02:02:41;;;;;;;3.67;2.67;;;;;;;;;;5092270;28;20452;-56
2020/12/23 02:05:08;;;;;;;8.38;2.80;;;;;;;;;;5077214;28;20467;-57
2020/12/23 02:07:34;;;;;;;4.88;2.58;;;;;;;;;;5073458;28;20095;-57
2020/12/23 02:10:00;;;;;;;5.50;2.70;;;;;;;;;;5075143;28;20095;-55
2020/12/23 02:12:26;;;;;;;5.97;2.55;;;;;;;;;;5078664;28;20024;-52
2020/12/23 02:14:54;;;;;;;3.97;2.83;;;;;;;;;;5084359;28;20024;-54
2020/12/23 02:17:19;;;;;;;4.35;2.92;;;;;;;;;;5088073;28;20485;-54
2020/12/23 02:19:50;;;;;;;4.95;2.97;;;;;;;;;;5082733;28;20138;-55
2020/12/23 02:22:22;;;;;;;6.55;2.90;;;;;;;;;;5085149;28;20016;-55
2020/12/23 02:24:48;;;;;;;4.65;2.40;;;;;;;;;;5091919;28;20101;-54
2020/12/23 02:27:14;;;;;;;4.28;3.08;;;;;;;;;;5092738;28;20077;-54
2020/12/23 02:29:46;;;;;;;7.63;2.33;;;;;;;;;;5090028;28;20023;-52
2020/12/23 02:32:12;;;;;;;4.35;2.42;;;;;;;;;;5090664;28;20420;-55
2020/12/23 02:34:37;;;;;;;5.03;2.50;;;;;;;;;;5092861;28;20467;-55
2020/12/23 02:37:03;;;;;;;4.72;2.47;;;;;;;;;;5092913;28;20034;-54
2020/12/23 02:39:28;;;;;;;2.75;2.30;;;;;;;;;;5086655;28;20020;-55
2020/12/23 02:41:54;;;;;;;5.45;2.85;;;;;;;;;;5090872;28;20032;-55
2020/12/23 02:44:20;;;;;;;4.22;2.90;;;;;;;;;;5092890;28;20024;-55
2020/12/23 02:46:49;;;;;;;5.60;2.83;;;;;;;;;;5088959;28;20012;-52
2020/12/23 02:49:14;;;;;;;5.78;2.67;;;;;;;;;;5083622;28;20382;-52
2020/12/23 02:51:39;;;;;;;5.68;2.83;;;;;;;;;;5090494;28;20038;-55
2020/12/23 02:54:05;;;;;;;4.70;2.83;;;;;;;;;;5091948;28;20032;-52
2020/12/23 02:56:30;;;;;;;6.72;2.95;;;;;;;;;;5091603;28;20027;-54
2020/12/23 02:58:55;;;;;;;5.63;2.60;;;;;;;;;;5080233;28;20028;-55
2020/12/23 03:01:20;;;;;;;8.00;3.10;;;;;;;;;;5083904;28;20432;-56
2020/12/23 03:03:45;;;;;;;5.78;3.00;;;;;;;;;;5092074;28;20024;-56
2020/12/23 03:06:11;;;;;;;6.60;3.47;;;;;;;;;;5092023;28;20432;-56
2020/12/23 03:08:36;;;;;;;7.82;3.30;;;;;;;;;;5082934;28;20023;-56
2020/12/23 03:11:01;;;;;;;7.13;3.33;;;;;;;;;;5089868;28;20073;-56
2020/12/23 03:13:26;;;;;;;9.55;4.10;;;;;;;;;;5086710;28;20024;-56
2020/12/23 03:15:51;;;;;;;8.05;4.32;;;;;;;;;;5089401;28;20099;-54
2020/12/23 03:18:16;;;;;;;9.50;4.10;;;;;;;;;;5086997;28;20066;-56
2020/12/23 03:20:42;;;;;;;9.02;4.15;;;;;;;;;;5088879;28;20100;-50
2020/12/23 03:23:07;;;;;;;8.82;4.32;;;;;;;;;;5080077;28;20475;-56
2020/12/23 03:25:33;;;;;;;7.57;3.97;;;;;;;;;;5090354;28;20115;-55
2020/12/23 03:27:58;;;;;;;7.80;4.35;;;;;;;;;;5084726;28;20471;-52
2020/12/23 03:30:23;;;;;;;8.65;4.00;;;;;;;;;;5089208;28;20028;-54
2020/12/23 03:32:48;;;;;;;7.20;3.45;;;;;;;;;;5092048;28;20420;-56
2020/12/23 03:35:13;;;;;;;7.90;4.32;;;;;;;;;;5091928;28;20405;-56
2020/12/23 03:37:39;;;;;;;7.30;2.85;;;;;;;;;;5091787;28;20374;-56
2020/12/23 03:40:04;;;;;;;5.85;2.10;;;;;;;;;;5087915;28;20024;-56
2020/12/23 03:42:29;;;;;;;3.60;2.08;;;;;;;;;;5086522;28;20013;-54
2020/12/23 03:44:54;;;;;;;3.78;1.80;;;;;;;;;;5092076;28;20025;-52
2020/12/23 03:47:19;;;;;;;2.65;1.30;;;;;;;;;;5088374;28;20077;-56
2020/12/23 03:49:45;;;;;;;2.80;1.58;;;;;;;;;;5082696;28;20016;-56
2020/12/23 03:52:10;;;;;;;2.58;1.35;;;;;;;;;;5079130;28;20020;-55
2020/12/23 03:54:35;;;;;;;3.35;1.60;;;;;;;;;;5090948;28;20066;-57
2020/12/23 03:57:00;;;;;;;2.67;0.90;;;;;;;;;;5090895;28;20482;-57
2020/12/23 03:59:25;;;;;;;2.92;0.98;;;;;;;;;;5088379;28;20028;-56
2020/12/23 04:01:51;;;;;;;2.08;1.10;;;;;;;;;;5089430;28;20049;-56
2020/12/23 04:04:16;;;;;;;2.63;1.13;;;;;;;;;;5090788;28;20111;-57
2020/12/23 04:06:41;;;;;;;3.47;1.33;;;;;;;;;;5089826;28;20044;-56
2020/12/23 04:09:06;;;;;;;2.75;1.35;;;;;;;;;;5088811;28;20478;-55
2020/12/23 04:11:31;;;;;;;1.45;1.10;;;;;;;;;;5089089;28;20028;-55
2020/12/23 04:13:57;;;;;;;1.52;0.90;;;;;;;;;;5084798;28;20037;-55
2020/12/23 04:16:22;;;;;;;1.98;0.70;;;;;;;;;;5079794;28;20024;-56
2020/12/23 04:18:47;;;;;;;3.60;0.50;;;;;;;;;;5088162;28;20020;-57
2020/12/23 04:21:12;;;;;;;1.80;0.60;;;;;;;;;;5085968;28;20039;-56
2020/12/23 04:23:37;;;;;;;2.60;0.55;;;;;;;;;;5092863;28;20058;-55
2020/12/23 04:26:03;;;;;;;1.48;0.40;;;;;;;;;;5094413;28;20020;-58
2020/12/23 04:28:28;;;;;;;1.77;0.77;;;;;;;;;;5091590;28;20055;-57
2020/12/23 04:30:53;;;;;;;5.45;0.50;;;;;;;;;;5088085;28;20030;-54
2020/12/23 04:33:18;;;;;;;1.08;0.50;;;;;;;;;;5092825;28;20062;-55
2020/12/23 04:35:43;;;;;;;1.48;0.50;;;;;;;;;;5095100;28;20107;-57
2020/12/23 04:38:09;;;;;;;1.95;0.45;;;;;;;;;;5093966;28;20108;-58
2020/12/23 04:40:39;;;;;;;2.75;0.40;;;;;;;;;;5082597;28;20008;-54
2020/12/23 04:43:04;;;;;;;1.45;0.32;;;;;;;;;;5094514;28;20035;-58
2020/12/23 04:45:29;;;;;;;1.52;0.20;;;;;;;;;;5095103;28;20017;-56
2020/12/23 04:47:56;;;;;;;1.42;0.40;;;;;;;;;;5091770;28;20065;-56
2020/12/23 04:50:22;;;;;;;0.73;0.20;;;;;;;;;;5082678;28;20050;-55
2020/12/23 04:52:47;;;;;;;0.70;0.30;;;;;;;;;;5086894;28;20021;-57
2020/12/23 04:55:12;;;;;;;1.50;0.70;;;;;;;;;;5088849;28;20107;-56
2020/12/23 04:57:39;;;;;;;1.40;0.40;;;;;;;;;;5093222;28;20047;-53
2020/12/23 05:00:05;;;;;;;1.88;0.55;;;;;;;;;;5091036;28;20111;-55
2020/12/23 05:02:30;;;;;;;1.80;0.50;;;;;;;;;;5093357;28;20047;-57
2020/12/23 05:04:56;;;;;;;1.70;0.70;;;;;;;;;;5093906;28;20632;-56
2020/12/23 05:07:21;;;;;;;2.05;0.45;;;;;;;;;;5092888;28;20024;-54
2020/12/23 05:09:50;;;;;;;1.40;0.55;;;;;;;;;;5091197;28;20020;-56
2020/12/23 05:12:16;;;;;;;1.30;0.60;;;;;;;;;;5092264;28;20514;-55
2020/12/23 05:14:42;;;;;;;2.00;0.65;;;;;;;;;;5092500;28;20042;-56
2020/12/23 05:17:09;;;;;;;3.00;0.88;;;;;;;;;;5093225;28;20459;-55
2020/12/23 05:19:35;;;;;;;3.80;1.27;;;;;;;;;;5091184;28;20024;-55
2020/12/23 05:22:01;;;;;;;1.33;0.93;;;;;;;;;;5093905;28;20043;-56
2020/12/23 05:24:26;;;;;;;1.52;1.08;;;;;;;;;;5092937;28;20120;-58
2020/12/23 05:26:56;;;;;;;3.90;1.08;;;;;;;;;;5093101;28;20020;-57
2020/12/23 05:29:22;;;;;;;1.92;0.93;;;;;;;;;;5080078;28;20017;-55
2020/12/23 05:31:47;;;;;;;2.95;0.95;;;;;;;;;;5090096;28;20023;-58
2020/12/23 05:34:14;;;;;;;2.67;1.08;;;;;;;;;;5091417;28;20039;-57
2020/12/23 05:36:40;;;;;;;4.00;1.30;;;;;;;;;;5094464;28;20099;-55
2020/12/23 05:39:06;;;;;;;2.60;0.80;;;;;;;;;;5089573;28;20083;-57
2020/12/23 05:41:32;;;;;;;5.85;1.10;;;;;;;;;;5086306;28;20478;-58
2020/12/23 05:43:57;;;;;;;3.00;1.40;;;;;;;;;;5088829;28;20547;-57
2020/12/23 05:46:22;;;;;;;2.83;1.08;;;;;;;;;;5084318;28;20086;-58
2020/12/23 05:48:47;;;;;;;2.95;1.15;;;;;;;;;;5082302;28;20020;-57
2020/12/23 05:51:13;;;;;;;2.95;0.95;;;;;;;;;;5090621;28;20016;-55
2020/12/23 05:53:39;;;;;;;3.50;1.15;;;;;;;;;;5089858;28;20481;-55
2020/12/23 05:56:05;;;;;;;2.42;0.47;;;;;;;;;;5090837;28;20060;-57
2020/12/23 05:58:37;;;;;;;2.95;0.50;;;;;;;;;;5079872;28;20026;-55
2020/12/23 06:01:04;;;;;;;3.75;0.50;;;;;;;;;;5091344;28;20031;-57
2020/12/23 06:03:29;;;;;;;2.75;0.70;;;;;;;;;;5091162;28;20020;-57
2020/12/23 06:05:58;;;;;;;3.20;0.93;;;;;;;;;;5083614;28;20103;-57
2020/12/23 06:08:28;;;;;;;3.22;0.63;;;;;;;;;;5089896;28;20051;-56
2020/12/23 06:10:57;;;;;;;3.38;1.20;;;;;;;;;;5093019;28;20083;-57
2020/12/23 06:13:38;;;;;;;1.52;0.77;;;;;;;;;;5093039;28;20030;-57
2020/12/23 06:16:03;;;;;;;3.95;1.05;;;;;;;;;;5085327;28;20085;-57
2020/12/23 06:18:30;;;;;;;5.28;1.25;;;;;;;;;;5089527;28;20020;-57
2020/12/23 06:20:58;;;;;;;6.88;1.20;;;;;;;;;;5086142;28;20116;-57
2020/12/23 06:23:26;;;;;;;5.28;1.27;;;;;;;;;;5076807;28;20098;-57
2020/12/23 06:25:52;;;;;;;4.60;1.70;;;;;;;;;;5092487;28;20016;-56
2020/12/23 06:28:21;;;;;;;4.00;1.33;;;;;;;;;;5089379;28;20474;-56
2020/12/23 06:30:48;;;;;;;5.57;1.67;;;;;;;;;;5090894;28;20356;-56
2020/12/23 06:33:14;;;;;;;4.32;1.38;;;;;;;;;;5090281;28;20501;-55
2020/12/23 06:35:39;;;;;;;3.83;1.70;;;;;;;;;;5091242;28;20023;-56
2020/12/23 06:38:18;;;;;;;4.57;1.52;;;;;;;;;;5091708;28;20054;-57
2020/12/23 06:40:56;;;;;;;4.20;1.48;;;;;;;;;;5088896;28;20093;-56
2020/12/23 06:43:41;;;;;;;3.65;1.60;;;;;;;;;;5075994;28;20127;-57
2020/12/23 06:46:06;;;;;;;4.18;1.88;;;;;;;;;;5087581;28;20020;-56
2020/12/23 06:48:31;;;;;;;5.07;2.08;;;;;;;;;;5084793;28;20576;-57
2020/12/23 06:50:57;;;;;;;3.20;1.60;;;;;;;;;;5082676;28;20034;-57
2020/12/23 06:53:34;;;;;;;3.47;1.90;;;;;;;;;;5079608;28;20871;-57
2020/12/23 06:55:59;;;;;;;2.70;1.60;;;;;;;;;;5091787;28;20023;-55
2020/12/23 06:58:41;;;;;;;4.97;1.98;;;;;;;;;;5084540;28;20012;-57
2020/12/23 07:01:17;;;;;;;6.50;2.60;;;;;;;;;;5080876;28;20020;-58
2020/12/23 07:03:42;;;;;;;;;;;;;;;;;;5087863;28;20024;-55
2020/12/23 07:06:27;;;;;;;3.08;2.10;;;;;;;;;;5081962;28;20002;-55
2020/12/23 07:08:53;;;;;;;5.25;2.30;;;;;;;;;;5069230;28;20025;-57
2020/12/23 07:11:20;;;;;;;5.65;2.85;;;;;;;;;;5087872;28;20459;-56
2020/12/23 07:13:45;;;;;;;4.93;2.35;;;;;;;;;;5090593;28;20062;-56
2020/12/23 07:16:12;;;;;;;5.25;2.60;;;;;;;;;;5086229;28;20435;-57
2020/12/23 07:18:38;;;;;;;6.40;1.92;;;;;;;;;;5069638;28;20032;-56
2020/12/23 07:21:05;;;;;;;4.40;1.77;;;;;;;;;;5089119;28;20394;-56
2020/12/23 07:23:31;;;;;;;5.72;2.30;;;;;;;;;;5083134;28;20074;-56
2020/12/23 07:25:57;;;;;;;4.00;1.90;;;;;;;;;;5090616;28;20383;-57
2020/12/23 07:28:28;;;;;;;5.63;2.13;;;;;;;;;;5089125;28;20028;-56
2020/12/23 07:30:53;;;;;;;4.90;1.60;;;;;;;;;;5090478;28;20077;-56
2020/12/23 07:33:19;;;;;;;3.45;1.77;;;;;;;;;;5092325;28;20016;-56
2020/12/23 07:35:48;;;;;;;6.63;1.98;;;;;;;;;;5091427;28;20032;-57
2020/12/23 07:38:14;;;;;;;3.63;1.75;;;;;;;;;;5090812;28;20052;-56
2020/12/23 07:40:40;;;;;;;5.53;1.63;;;;;;;;;;5087064;28;20058;-55
2020/12/23 07:43:05;;;;;;;2.72;1.80;;;;;;;;;;5089071;28;20024;-56
2020/12/23 07:45:31;;;;;;;5.78;1.60;;;;;;;;;;5085074;28;20019;-56
2020/12/23 07:48:06;;;;;;;3.38;1.35;;;;;;;;;;5091906;28;20031;-57
2020/12/23 07:50:33;;;;;;;3.95;1.70;;;;;;;;;;5087425;28;20482;-57
2020/12/23 07:53:10;;;;;;;5.03;1.92;;;;;;;;;;5091480;28;20052;-55
2020/12/23 07:55:35;;;;;;;3.58;2.33;;;;;;;;;;5094269;28;20089;-58
2020/12/23 07:58:01;;;;;;;10.30;3.40;;;;;;;;;;5094457;28;21180;-58
2020/12/23 08:00:26;;;;;;;5.57;2.33;;;;;;;;;;5086446;28;20016;-57
2020/12/23 08:02:53;;;;;;;5.18;3.03;;;;;;;;;;5092977;28;20024;-56
2020/12/23 08:05:18;;;;;;;8.20;3.67;;;;;;;;;;5094604;28;20026;-56
2020/12/23 08:07:44;;;;;;;5.25;3.30;;;;;;;;;;5090326;28;20107;-56
2020/12/23 08:10:13;;;;;;;7.35;3.35;;;;;;;;;;5092436;28;20020;-57
2020/12/23 08:12:39;;;;;;;5.55;2.88;;;;;;;;;;5094252;28;20382;-57
2020/12/23 08:15:07;;;;;;;4.90;2.95;;;;;;;;;;5093131;28;20032;-56
2020/12/23 08:17:33;;;;;;;4.20;2.80;;;;;;;;;;5094441;28;20028;-58
2020/12/23 08:20:02;;;;;;;4.18;2.67;;;;;;;;;;5089225;28;20027;-57
2020/12/23 08:22:28;;;;;;;5.90;3.00;;;;;;;;;;5095135;28;20028;-56
2020/12/23 08:25:22;;;;;;;4.57;2.60;;;;;;;;;;5088568;28;20036;-54
2020/12/23 08:27:49;;;;;;;4.40;2.67;;;;;;;;;;5069396;28;20036;-56
2020/12/23 08:30:18;;;;;;;6.32;2.78;;;;;;;;;;5090375;28;20020;-57
2020/12/23 08:32:56;;;;;;;5.43;2.33;;;;;;;;;;5097724;28;20021;-58
2020/12/23 08:35:24;;;;;;;6.78;3.13;;;;;;;;;;5089099;28;20493;-56
2020/12/23 08:37:49;;;;;;;5.18;2.30;;;;;;;;;;5088093;28;20382;-56
2020/12/23 08:40:16;;;;;;;5.47;3.33;;;;;;;;;;5087026;28;20114;-57
2020/12/23 08:42:55;;;;;;;5.15;2.58;;;;;;;;;;5086559;28;20089;-57
2020/12/23 08:45:28;;;;;;;8.93;3.42;;;;;;;;;;5088063;28;20024;-58
2020/12/23 08:47:53;;;;;;;3.83;2.55;;;;;;;;;;5093307;28;20450;-56
2020/12/23 08:50:20;;;;;;;5.93;2.67;;;;;;;;;;5090463;28;20020;-58
2020/12/23 08:52:46;;;;;;;4.45;2.50;;;;;;;;;;5090891;28;20145;-56
2020/12/23 08:55:18;;;;;;;4.18;2.60;;;;;;;;;;5085704;28;20024;-57
2020/12/23 08:57:44;;;;;;;6.25;3.33;;;;;;;;;;5085908;28;20024;-57
2020/12/23 09:00:15;;;;;;;5.50;3.40;;;;;;;;;;5085539;28;20028;-57
2020/12/23 09:02:42;;;;;;;3.78;2.53;;;;;;;;;;5085282;28;20191;-56
2020/12/23 09:05:26;;;;;;;4.53;2.95;;;;;;;;;;5093071;28;20035;-55
2020/12/23 09:08:07;;;;;;;3.92;2.72;;;;;;;;;;5093136;28;20031;-58
2020/12/23 09:10:36;;;;;;;4.72;2.95;;;;;;;;;;5091769;28;20036;-57
2020/12/23 09:13:08;;;;;;;5.03;2.75;;;;;;;;;;5086349;28;20024;-58
2020/12/23 09:15:35;;;;;;;4.93;2.78;;;;;;;;;;5084691;28;20374;-55
2020/12/23 09:18:06;;;;;;;4.57;3.03;;;;;;;;;;5084694;28;20020;-58
2020/12/23 09:20:31;;;;;;;2.88;1.77;;;;;;;;;;5085160;28;20039;-58
2020/12/23 09:22:56;;;;;;;4.22;1.98;;;;;;;;;;5083588;28;20378;-57
2020/12/23 09:25:25;;;;;;;3.90;1.90;;;;;;;;;;5085484;28;20012;-56
2020/12/23 09:27:52;;;;;;;4.22;2.17;;;;;;;;;;5083007;28;20016;-56
2020/12/23 09:30:30;;;;;;;4.57;2.90;;;;;;;;;;5083998;28;20439;-54
2020/12/23 09:32:55;;;;;;;4.63;2.33;;;;;;;;;;5081737;28;20097;-57
2020/12/23 09:35:23;;;;;;;6.28;2.85;;;;;;;;;;5089061;28;20067;-57
2020/12/23 09:37:50;;;;;;;5.20;2.50;;;;;;;;;;5085410;28;21480;-55
2020/12/23 09:40:16;;;;;;;3.60;2.72;;;;;;;;;;5081859;28;20686;-56
2020/12/23 09:42:41;;;;;;;4.82;2.45;;;;;;;;;;5083872;28;20031;-54
2020/12/23 09:45:08;;;;;;;3.67;2.20;;;;;;;;;;5084589;28;20027;-55
2020/12/23 09:47:34;;;;;;;4.82;2.42;;;;;;;;;;5083424;28;20024;-55
2020/12/23 09:50:02;;;;;;;2.85;2.10;;;;;;;;;;5085764;28;20482;-56
2020/12/23 09:52:28;;;;;;;2.97;2.15;;;;;;;;;;5085355;28;20023;-54
2020/12/23 09:54:53;;;;;;;3.67;2.53;;;;;;;;;;5085961;28;20023;-55
2020/12/23 09:57:18;;;;;;;3.67;2.00;;;;;;;;;;5084214;28;20040;-57
2020/12/23 09:59:44;;;;;;;5.38;2.30;;;;;;;;;;5082437;28;20135;-55
2020/12/23 10:02:09;;;;;;;2.33;1.90;;;;;;;;;;5087865;28;20390;-52
2020/12/23 10:04:34;;;;;;;4.45;2.15;;;;;;;;;;5085901;28;20056;-54
2020/12/23 10:06:59;;;;;;;3.28;2.30;;;;;;;;;;5083153;28;20443;-55
2020/12/23 10:09:25;;;;;;;4.25;2.20;;;;;;;;;;5078591;28;20016;-55
2020/12/23 10:11:50;;;;;;;4.65;2.05;;;;;;;;;;5087625;28;20538;-56
2020/12/23 10:14:15;;;;;;;3.50;2.47;;;;;;;;;;5089284;28;20107;-56
2020/12/23 10:16:40;;;;;;;4.18;2.03;;;;;;;;;;5093189;28;20110;-57
2020/12/23 10:19:05;;;;;;;5.00;2.33;;;;;;;;;;5089899;28;20386;-57
2020/12/23 10:21:31;;;;;;;3.90;2.38;;;;;;;;;;5088577;28;20459;-56
2020/12/23 10:23:56;;;;;;;4.20;2.25;;;;;;;;;;5092263;28;20052;-58
2020/12/23 10:26:21;;;;;;;3.08;1.80;;;;;;;;;;5091181;28;20103;-57
2020/12/23 10:28:48;;;;;;;6.00;2.65;;;;;;;;;;5086331;28;20284;-57
2020/12/23 10:31:13;;;;;;;4.22;2.72;;;;;;;;;;5091784;28;20012;-56
2020/12/23 10:33:39;;;;;;;5.13;2.33;;;;;;;;;;5092829;28;20045;-56
2020/12/23 10:36:08;;;;;;;4.82;2.60;;;;;;;;;;5090449;28;20202;-57
2020/12/23 10:38:34;;;;;;;2.97;2.30;;;;;;;;;;5089357;28;20020;-56
2020/12/23 10:40:59;;;;;;;4.38;3.20;;;;;;;;;;5087301;28;20426;-57
2020/12/23 10:43:25;;;;;;;3.60;2.65;;;;;;;;;;5092346;28;20533;-57
2020/12/23 10:45:51;;;;;;;3.85;2.40;;;;;;;;;;5089634;28;20099;-57
2020/12/23 10:48:17;;;;;;;4.05;2.70;;;;;;;;;;5087284;28;20057;-57
2020/12/23 10:50:43;;;;;;;4.72;2.47;;;;;;;;;;5078592;28;20020;-57
2020/12/23 10:53:11;;;;;;;4.20;2.22;;;;;;;;;;5107451;28;20068;-58
2020/12/23 10:55:36;;;;;;;4.10;1.95;;;;;;;;;;5098326;28;20027;-59
2020/12/23 10:58:01;;;;;;;2.13;1.60;;;;;;;;;;5091766;28;20032;-55
2020/12/23 11:00:26;;;;;;;3.05;1.85;;;;;;;;;;5087165;28;20031;-55
2020/12/23 11:02:53;;;;;;;3.50;2.05;;;;;;;;;;5091895;28;20028;-56
2020/12/23 11:05:18;;;;;;;2.15;1.85;;;;;;;;;;5073443;28;20020;-57
2020/12/23 11:07:44;;;;;;;3.22;1.60;;;;;;;;;;5084605;28;20024;-56
2020/12/23 11:10:09;;;;;;;1.00;0.90;;;;;;;;;;5088292;28;20386;-57
2020/12/23 11:12:34;;;;;;;1.98;0.70;;;;;;;;;;5091843;28;20020;-55
2020/12/23 11:15:00;;;;;;;1.45;0.50;;;;;;;;;;5089732;28;20160;-55
2020/12/23 11:17:26;;;;;;;0.85;0.45;;;;;;;;;;5080402;28;20531;-58
2020/12/23 11:19:54;;;;;;;0.90;0.50;;;;;;;;;;5072293;28;20027;-57
2020/12/23 11:22:19;;;;;;;0.38;0.25;;;;;;;;;;5091495;28;20471;-58
2020/12/23 11:24:45;;;;;;;0.40;0.25;;;;;;;;;;5089037;28;20044;-55
2020/12/23 11:27:10;;;;;;;0.77;0.22;;;;;;;;;;5090007;28;20080;-58
2020/12/23 11:29:35;;;;;;;0.40;0.20;;;;;;;;;;5091197;28;20516;-58
2020/12/23 11:32:00;;;;;;;0.50;0.20;;;;;;;;;;5092936;28;20028;-58
2020/12/23 11:34:27;;;;;;;0.30;0.10;;;;;;;;;;5091975;28;20020;-58
2020/12/23 11:36:56;;;;;;;0.30;0.20;;;;;;;;;;5091503;28;20024;-54
2020/12/23 11:39:21;;;;;;;0.20;0.10;;;;;;;;;;5087789;28;20024;-56
2020/12/23 11:41:46;;;;;;;0.28;0.20;;;;;;;;;;5091432;28;20069;-57
2020/12/23 11:44:11;;;;;;;0.30;0.20;;;;;;;;;;5087506;28;20051;-57
2020/12/23 11:46:37;;;;;;;0.10;0.00;;;;;;;;;;5087533;28;20012;-56
2020/12/23 11:49:03;;;;;;;0.93;0.20;;;;;;;;;;5087994;28;20099;-58
2020/12/23 11:51:28;;;;;;;0.98;0.30;;;;;;;;;;5091717;28;20157;-58
2020/12/23 11:53:54;;;;;;;0.40;0.20;;;;;;;;;;5090413;28;20491;-56
2020/12/23 11:56:22;;;;;;;1.23;0.35;;;;;;;;;;5091425;28;20023;-57
2020/12/23 11:58:47;;;;;;;1.10;0.35;;;;;;;;;;5086678;28;20379;-56
2020/12/23 12:01:13;;;;;;;0.60;0.20;;;;;;;;;;5091329;28;20028;-57
2020/12/23 12:03:39;;;;;;;0.38;0.20;;;;;;;;;;5090803;28;20023;-57
2020/12/23 12:06:04;;;;;;;0.82;0.20;;;;;;;;;;5091316;28;20013;-56
2020/12/23 12:08:30;;;;;;;0.90;0.20;;;;;;;;;;5074865;28;20030;-57
2020/12/23 12:10:56;;;;;;;1.58;0.32;;;;;;;;;;5088963;28;20042;-57
2020/12/23 12:13:23;;;;;;;1.20;0.20;;;;;;;;;;5081557;28;20016;-57
2020/12/23 12:15:49;;;;;;;1.65;0.17;;;;;;;;;;5091292;28;20016;-56
2020/12/23 12:18:16;;;;;;;0.20;0.10;;;;;;;;;;5089703;28;20052;-57
2020/12/23 12:20:42;;;;;;;0.85;0.10;;;;;;;;;;5088573;28;20028;-56
2020/12/23 12:23:07;;;;;;;0.20;0.10;;;;;;;;;;5088936;28;20073;-58
2020/12/23 12:25:34;;;;;;;0.20;0.10;;;;;;;;;;5091434;28;20075;-58
2020/12/23 12:28:01;;;;;;;0.60;0.20;;;;;;;;;;5091298;28;20103;-57
2020/12/23 12:30:26;;;;;;;0.63;0.17;;;;;;;;;;5088313;28;20020;-56
2020/12/23 12:32:51;;;;;;;0.40;0.30;;;;;;;;;;5089438;28;20034;-56
2020/12/23 12:35:17;;;;;;;0.55;0.20;;;;;;;;;;5089509;28;20100;-55
2020/12/23 12:37:42;;;;;;;0.30;0.10;;;;;;;;;;5092481;28;20024;-55
2020/12/23 12:40:07;;;;;;;1.35;0.30;;;;;;;;;;5090860;28;20024;-57
2020/12/23 12:42:33;;;;;;;1.48;0.50;;;;;;;;;;5091672;28;20420;-57
2020/12/23 12:44:58;;;;;;;1.77;0.30;;;;;;;;;;5089264;28;20379;-56
2020/12/23 12:47:23;;;;;;;1.63;0.30;;;;;;;;;;5090529;28;20019;-56
2020/12/23 12:49:49;;;;;;;1.17;0.40;;;;;;;;;;5081832;28;20024;-57
2020/12/23 12:52:14;;;;;;;1.58;0.50;;;;;;;;;;5089690;28;20031;-58
2020/12/23 12:54:39;;;;;;;1.25;0.90;;;;;;;;;;5091046;28;20149;-57
2020/12/23 12:57:04;;;;;;;2.10;0.32;;;;;;;;;;5087969;28;20489;-57
2020/12/23 12:59:31;;;;;;;0.90;0.40;;;;;;;;;;5086060;28;20477;-54
2020/12/23 13:01:57;;;;;;;1.30;0.30;;;;;;;;;;5085818;28;20470;-56
2020/12/23 13:04:22;;;;;;;0.77;0.35;;;;;;;;;;5081995;28;20081;-56
2020/12/23 13:06:47;;;;;;;1.48;0.40;;;;;;;;;;5090502;28;20436;-55
2020/12/23 13:09:14;;;;;;;1.48;0.40;;;;;;;;;;5080284;28;20034;-57
2020/12/23 13:11:39;;;;;;;0.63;0.40;;;;;;;;;;5086829;28;20015;-57
2020/12/23 13:14:05;;;;;;;1.10;0.40;;;;;;;;;;5092378;28;20020;-56
2020/12/23 13:16:33;;;;;;;0.30;0.30;;;;;;;;;;5087994;28;20152;-56
2020/12/23 13:18:59;;;;;;;0.47;0.30;;;;;;;;;;5075212;28;20021;-59
2020/12/23 13:21:24;;;;;;;0.80;0.30;;;;;;;;;;5075850;28;20849;-56
2020/12/23 13:23:50;;;;;;;0.70;0.50;;;;;;;;;;5092898;28;20097;-57
2020/12/23 13:26:18;;;;;;;0.90;0.50;;;;;;;;;;5093889;28;20043;-57
2020/12/23 13:28:47;;;;;;;1.83;0.45;;;;;;;;;;5077753;28;20556;-56
2020/12/23 13:31:13;;;;;;;0.63;0.40;;;;;;;;;;5078505;28;20021;-58
2020/12/23 13:33:38;;;;;;;0.90;0.40;;;;;;;;;;5081238;28;20376;-56
2020/12/23 13:36:03;;;;;;;1.17;0.30;;;;;;;;;;5092176;28;20027;-57
2020/12/23 13:38:28;;;;;;;0.77;0.50;;;;;;;;;;5090642;28;20046;-58
2020/12/23 13:40:54;;;;;;;1.13;0.40;;;;;;;;;;5093833;28;20427;-57
2020/12/23 13:43:19;;;;;;;0.57;0.40;;;;;;;;;;5091870;28;20505;-58
2020/12/23 13:45:45;;;;;;;0.55;0.43;;;;;;;;;;5093612;28;20024;-57
2020/12/23 13:48:10;;;;;;;1.05;0.68;;;;;;;;;;5092126;28;20020;-57
2020/12/23 13:50:39;;;;;;;2.30;1.10;;;;;;;;;;5091519;28;20478;-57
2020/12/23 13:53:04;;;;;;;2.80;1.20;;;;;;;;;;5092463;28;20101;-57
2020/12/23 13:55:30;;;;;;;3.38;2.17;;;;;;;;;;5088796;28;20093;-55
2020/12/23 13:57:57;;;;;;;3.95;2.17;;;;;;;;;;5081641;28;20098;-57
2020/12/23 14:00:22;;;;;;;2.95;2.30;;;;;;;;;;5089664;28;20023;-55
2020/12/23 14:02:47;;;;;;;5.50;2.35;;;;;;;;;;5092735;28;20016;-57
2020/12/23 14:05:13;;;;;;;3.33;2.65;;;;;;;;;;5093217;28;20020;-57
2020/12/23 14:07:38;;;;;;;4.53;2.67;;;;;;;;;;5093030;28;20047;-58
2020/12/23 14:10:03;;;;;;;4.53;2.50;;;;;;;;;;5089605;28;20375;-54
2020/12/23 14:12:28;;;;;;;2.13;1.92;;;;;;;;;;5092426;28;20462;-58
2020/12/23 14:14:54;;;;;;;2.50;1.83;;;;;;;;;;5091365;28;20039;-58
2020/12/23 14:17:19;;;;;;;4.00;2.45;;;;;;;;;;5092163;28;20152;-57
2020/12/23 14:19:44;;;;;;;3.35;2.67;;;;;;;;;;5090030;28;20020;-56
2020/12/23 14:22:09;;;;;;;4.47;3.40;;;;;;;;;;5092063;28;20328;-56
2020/12/23 14:24:34;;;;;;;3.88;3.42;;;;;;;;;;5092446;28;20119;-57
2020/12/23 14:27:00;;;;;;;6.05;4.68;;;;;;;;;;5091506;28;20378;-58
2020/12/23 14:29:25;;;;;;;4.70;4.28;;;;;;;;;;5088913;28;20020;-58
2020/12/23 14:31:50;;;;;;;4.15;3.75;;;;;;;;;;5092621;28;20198;-56
2020/12/23 14:34:16;;;;;;;5.13;3.90;;;;;;;;;;5092680;28;20027;-58
2020/12/23 14:36:41;;;;;;;4.53;4.07;;;;;;;;;;5092975;28;20030;-56
2020/12/23 14:39:06;;;;;;;5.15;3.30;;;;;;;;;;5088889;28;20024;-56